sensor_id;sensor_type;location;lat;lon;timestamp;temperature;humidity
32947;DHT22;54465;51.230;22.504;2022-09-03T00:00:25;12.80;77.90
32947;DHT22;54465;51.230;22.504;2022-09-03T00:03:32;12.80;77.90
32947;DHT22;54465;51.230;22.504;2022-09-03T00:06:44;12.80;78.20
32947;DHT22;54465;51.230;22.504;2022-09-03T00:09:54;12.80;78.60
32947;DHT22;54465;51.230;22.504;2022-09-03T00:13:04;12.80;78.90
32947;DHT22;54465;51.230;22.504;2022-09-03T00:16:11;12.70;79.60
32947;DHT22;54465;51.230;22.504;2022-09-03T00:19:17;12.70;79.10
32947;DHT22;54465;51.230;22.504;2022-09-03T00:22:26;12.70;80.20
32947;DHT22;54465;51.230;22.504;2022-09-03T00:25:37;12.70;79.60
32947;DHT22;54465;51.230;22.504;2022-09-03T00:28:44;12.60;79.70
32947;DHT22;54465;51.230;22.504;2022-09-03T00:31:49;12.60;79.90
32947;DHT22;54465;51.230;22.504;2022-09-03T00:34:56;12.60;80.10
32947;DHT22;54465;51.230;22.504;2022-09-03T00:38:02;12.50;80.20
32947;DHT22;54465;51.230;22.504;2022-09-03T00:41:09;12.60;80.80
32947;DHT22;54465;51.230;22.504;2022-09-03T00:44:30;12.50;81.10
32947;DHT22;54465;51.230;22.504;2022-09-03T00:47:37;12.40;81.20
32947;DHT22;54465;51.230;22.504;2022-09-03T00:50:51;12.40;81.20
32947;DHT22;54465;51.230;22.504;2022-09-03T00:54:11;12.30;81.50
32947;DHT22;54465;51.230;22.504;2022-09-03T00:57:22;12.30;81.70
32947;DHT22;54465;51.230;22.504;2022-09-03T01:00:27;12.30;81.70
32947;DHT22;54465;51.230;22.504;2022-09-03T01:03:36;12.30;81.80
32947;DHT22;54465;51.230;22.504;2022-09-03T01:06:49;12.30;82.00
32947;DHT22;54465;51.230;22.504;2022-09-03T01:10:06;12.30;81.90
32947;DHT22;54465;51.230;22.504;2022-09-03T01:13:15;12.30;82.00
32947;DHT22;54465;51.230;22.504;2022-09-03T01:16:26;12.20;81.80
32947;DHT22;54465;51.230;22.504;2022-09-03T01:23:25;12.20;81.90
32947;DHT22;54465;51.230;22.504;2022-09-03T01:26:44;12.20;82.10
32947;DHT22;54465;51.230;22.504;2022-09-03T01:29:58;12.20;82.20
32947;DHT22;54465;51.230;22.504;2022-09-03T01:33:09;12.20;82.30
32947;DHT22;54465;51.230;22.504;2022-09-03T01:36:20;12.20;82.30
32947;DHT22;54465;51.230;22.504;2022-09-03T01:39:29;12.20;82.40
32947;DHT22;54465;51.230;22.504;2022-09-03T01:42:44;12.20;82.40
32947;DHT22;54465;51.230;22.504;2022-09-03T01:45:54;12.20;82.50
32947;DHT22;54465;51.230;22.504;2022-09-03T01:49:04;12.10;82.70
32947;DHT22;54465;51.230;22.504;2022-09-03T01:52:15;12.10;82.90
32947;DHT22;54465;51.230;22.504;2022-09-03T01:55:23;12.10;83.00
32947;DHT22;54465;51.230;22.504;2022-09-03T01:58:30;12.00;83.40
32947;DHT22;54465;51.230;22.504;2022-09-03T02:01:39;11.90;83.20
32947;DHT22;54465;51.230;22.504;2022-09-03T02:04:56;11.90;83.40
32947;DHT22;54465;51.230;22.504;2022-09-03T02:08:02;11.90;83.80
32947;DHT22;54465;51.230;22.504;2022-09-03T02:11:07;11.90;83.80
32947;DHT22;54465;51.230;22.504;2022-09-03T02:14:11;11.80;83.90
32947;DHT22;54465;51.230;22.504;2022-09-03T02:17:16;11.80;83.80
32947;DHT22;54465;51.230;22.504;2022-09-03T02:20:21;11.80;83.80
32947;DHT22;54465;51.230;22.504;2022-09-03T02:23:27;11.80;84.00
32947;DHT22;54465;51.230;22.504;2022-09-03T02:26:33;11.80;84.20
32947;DHT22;54465;51.230;22.504;2022-09-03T02:29:36;11.80;84.40
32947;DHT22;54465;51.230;22.504;2022-09-03T02:32:40;11.80;84.40
32947;DHT22;54465;51.230;22.504;2022-09-03T02:35:43;11.80;84.60
32947;DHT22;54465;51.230;22.504;2022-09-03T02:38:46;11.80;84.70
32947;DHT22;54465;51.230;22.504;2022-09-03T02:41:53;11.70;84.60
32947;DHT22;54465;51.230;22.504;2022-09-03T02:45:00;11.80;85.50
32947;DHT22;54465;51.230;22.504;2022-09-03T02:48:09;11.70;84.80
32947;DHT22;54465;51.230;22.504;2022-09-03T02:51:13;11.70;85.00
32947;DHT22;54465;51.230;22.504;2022-09-03T02:54:15;11.70;85.20
32947;DHT22;54465;51.230;22.504;2022-09-03T02:57:17;11.60;85.20
32947;DHT22;54465;51.230;22.504;2022-09-03T03:00:20;11.60;85.40
32947;DHT22;54465;51.230;22.504;2022-09-03T03:03:24;11.60;85.70
32947;DHT22;54465;51.230;22.504;2022-09-03T03:06:27;11.50;86.10
32947;DHT22;54465;51.230;22.504;2022-09-03T03:09:30;11.50;86.30
32947;DHT22;54465;51.230;22.504;2022-09-03T03:12:32;11.50;87.50
32947;DHT22;54465;51.230;22.504;2022-09-03T03:15:35;11.50;86.80
32947;DHT22;54465;51.230;22.504;2022-09-03T03:18:39;11.40;86.90
32947;DHT22;54465;51.230;22.504;2022-09-03T03:21:41;11.40;87.40
32947;DHT22;54465;51.230;22.504;2022-09-03T03:24:43;11.30;88.40
32947;DHT22;54465;51.230;22.504;2022-09-03T03:27:46;11.30;88.80
32947;DHT22;54465;51.230;22.504;2022-09-03T03:30:48;11.30;88.40
32947;DHT22;54465;51.230;22.504;2022-09-03T03:33:54;11.20;88.60
32947;DHT22;54465;51.230;22.504;2022-09-03T03:36:57;11.20;89.10
32947;DHT22;54465;51.230;22.504;2022-09-03T03:40:00;11.20;89.50
32947;DHT22;54465;51.230;22.504;2022-09-03T03:43:03;11.10;89.80
32947;DHT22;54465;51.230;22.504;2022-09-03T03:46:06;11.10;90.00
32947;DHT22;54465;51.230;22.504;2022-09-03T03:49:10;11.10;90.10
32947;DHT22;54465;51.230;22.504;2022-09-03T03:52:13;11.10;90.30
32947;DHT22;54465;51.230;22.504;2022-09-03T03:55:15;11.00;90.50
32947;DHT22;54465;51.230;22.504;2022-09-03T03:58:18;11.00;90.70
32947;DHT22;54465;51.230;22.504;2022-09-03T04:01:30;11.00;90.90
32947;DHT22;54465;51.230;22.504;2022-09-03T04:04:43;10.90;91.20
32947;DHT22;54465;51.230;22.504;2022-09-03T04:07:47;10.90;91.40
32947;DHT22;54465;51.230;22.504;2022-09-03T04:10:50;10.90;91.60
32947;DHT22;54465;51.230;22.504;2022-09-03T04:13:53;10.80;91.60
32947;DHT22;54465;51.230;22.504;2022-09-03T04:16:56;10.80;91.80
32947;DHT22;54465;51.230;22.504;2022-09-03T04:20:01;10.80;92.10
32947;DHT22;54465;51.230;22.504;2022-09-03T04:23:04;10.80;92.30
32947;DHT22;54465;51.230;22.504;2022-09-03T04:26:08;10.80;92.40
32947;DHT22;54465;51.230;22.504;2022-09-03T04:29:11;10.80;92.70
32947;DHT22;54465;51.230;22.504;2022-09-03T04:32:14;10.80;93.00
32947;DHT22;54465;51.230;22.504;2022-09-03T04:35:35;10.80;93.20
32947;DHT22;54465;51.230;22.504;2022-09-03T04:38:39;10.80;93.60
32947;DHT22;54465;51.230;22.504;2022-09-03T04:41:42;10.90;93.80
32947;DHT22;54465;51.230;22.504;2022-09-03T04:44:45;10.90;94.00
32947;DHT22;54465;51.230;22.504;2022-09-03T04:47:56;10.90;94.10
32947;DHT22;54465;51.230;22.504;2022-09-03T04:51:03;10.90;94.50
32947;DHT22;54465;51.230;22.504;2022-09-03T04:54:08;11.00;94.50
32947;DHT22;54465;51.230;22.504;2022-09-03T04:57:11;11.00;94.60
32947;DHT22;54465;51.230;22.504;2022-09-03T05:00:14;11.10;94.80
32947;DHT22;54465;51.230;22.504;2022-09-03T05:03:18;11.10;94.80
32947;DHT22;54465;51.230;22.504;2022-09-03T05:06:23;11.20;94.90
32947;DHT22;54465;51.230;22.504;2022-09-03T05:09:26;11.20;95.00
32947;DHT22;54465;51.230;22.504;2022-09-03T05:12:28;11.20;94.90
32947;DHT22;54465;51.230;22.504;2022-09-03T05:15:31;11.30;95.00
32947;DHT22;54465;51.230;22.504;2022-09-03T05:18:39;11.40;95.10
32947;DHT22;54465;51.230;22.504;2022-09-03T05:21:45;11.40;95.10
32947;DHT22;54465;51.230;22.504;2022-09-03T05:24:48;11.50;95.20
32947;DHT22;54465;51.230;22.504;2022-09-03T05:27:50;11.50;95.20
32947;DHT22;54465;51.230;22.504;2022-09-03T05:30:59;11.60;95.30
32947;DHT22;54465;51.230;22.504;2022-09-03T05:34:03;11.70;95.40
32947;DHT22;54465;51.230;22.504;2022-09-03T05:37:07;11.70;95.20
32947;DHT22;54465;51.230;22.504;2022-09-03T05:40:10;11.80;95.20
32947;DHT22;54465;51.230;22.504;2022-09-03T05:43:13;11.80;95.20
32947;DHT22;54465;51.230;22.504;2022-09-03T05:46:16;11.90;95.10
32947;DHT22;54465;51.230;22.504;2022-09-03T05:49:20;12.00;95.30
32947;DHT22;54465;51.230;22.504;2022-09-03T05:52:23;12.10;95.00
32947;DHT22;54465;51.230;22.504;2022-09-03T05:55:26;12.20;95.00
32947;DHT22;54465;51.230;22.504;2022-09-03T05:58:30;12.30;94.90
32947;DHT22;54465;51.230;22.504;2022-09-03T06:01:33;12.40;94.80
32947;DHT22;54465;51.230;22.504;2022-09-03T06:04:36;12.40;94.80
32947;DHT22;54465;51.230;22.504;2022-09-03T06:07:43;12.50;94.70
32947;DHT22;54465;51.230;22.504;2022-09-03T06:10:49;12.60;94.70
32947;DHT22;54465;51.230;22.504;2022-09-03T06:13:52;12.70;94.60
32947;DHT22;54465;51.230;22.504;2022-09-03T06:16:56;12.80;94.60
32947;DHT22;54465;51.230;22.504;2022-09-03T06:19:58;12.90;94.50
32947;DHT22;54465;51.230;22.504;2022-09-03T06:23:02;13.00;94.50
32947;DHT22;54465;51.230;22.504;2022-09-03T06:26:06;13.10;94.40
32947;DHT22;54465;51.230;22.504;2022-09-03T06:29:10;13.20;94.20
32947;DHT22;54465;51.230;22.504;2022-09-03T06:32:14;13.20;94.10
32947;DHT22;54465;51.230;22.504;2022-09-03T06:35:19;13.40;94.20
32947;DHT22;54465;51.230;22.504;2022-09-03T06:38:26;13.40;94.20
32947;DHT22;54465;51.230;22.504;2022-09-03T06:41:30;13.60;94.20
32947;DHT22;54465;51.230;22.504;2022-09-03T06:44:37;13.60;94.20
32947;DHT22;54465;51.230;22.504;2022-09-03T06:47:39;13.70;94.00
32947;DHT22;54465;51.230;22.504;2022-09-03T06:50:43;13.80;94.10
32947;DHT22;54465;51.230;22.504;2022-09-03T06:53:53;14.00;94.10
32947;DHT22;54465;51.230;22.504;2022-09-03T06:56:56;14.20;94.10
32947;DHT22;54465;51.230;22.504;2022-09-03T06:59:58;14.30;93.90
32947;DHT22;54465;51.230;22.504;2022-09-03T07:03:05;14.50;93.80
32947;DHT22;54465;51.230;22.504;2022-09-03T07:06:10;14.60;93.50
32947;DHT22;54465;51.230;22.504;2022-09-03T07:09:14;14.80;93.20
32947;DHT22;54465;51.230;22.504;2022-09-03T07:12:18;15.00;93.00
32947;DHT22;54465;51.230;22.504;2022-09-03T07:15:21;15.10;92.80
32947;DHT22;54465;51.230;22.504;2022-09-03T07:18:23;15.20;92.70
32947;DHT22;54465;51.230;22.504;2022-09-03T07:21:27;15.40;92.50
32947;DHT22;54465;51.230;22.504;2022-09-03T07:24:34;15.60;91.90
32947;DHT22;54465;51.230;22.504;2022-09-03T07:27:37;15.70;91.60
32947;DHT22;54465;51.230;22.504;2022-09-03T07:30:41;15.90;91.40
32947;DHT22;54465;51.230;22.504;2022-09-03T07:33:52;16.00;91.10
32947;DHT22;54465;51.230;22.504;2022-09-03T07:36:57;16.10;90.30
32947;DHT22;54465;51.230;22.504;2022-09-03T07:40:09;16.30;90.60
32947;DHT22;54465;51.230;22.504;2022-09-03T07:43:13;16.40;90.10
32947;DHT22;54465;51.230;22.504;2022-09-03T07:46:32;16.60;89.70
32947;DHT22;54465;51.230;22.504;2022-09-03T07:49:39;16.80;88.90
32947;DHT22;54465;51.230;22.504;2022-09-03T07:52:43;16.90;87.80
32947;DHT22;54465;51.230;22.504;2022-09-03T07:55:52;17.10;86.30
32947;DHT22;54465;51.230;22.504;2022-09-03T07:58:57;17.30;85.80
32947;DHT22;54465;51.230;22.504;2022-09-03T08:02:00;17.50;85.70
32947;DHT22;54465;51.230;22.504;2022-09-03T08:05:06;17.70;84.70
32947;DHT22;54465;51.230;22.504;2022-09-03T08:08:09;17.90;80.90
32947;DHT22;54465;51.230;22.504;2022-09-03T08:11:17;18.00;79.00
32947;DHT22;54465;51.230;22.504;2022-09-03T08:14:21;18.20;78.20
32947;DHT22;54465;51.230;22.504;2022-09-03T08:17:24;18.30;75.80
32947;DHT22;54465;51.230;22.504;2022-09-03T08:20:28;18.50;76.10
32947;DHT22;54465;51.230;22.504;2022-09-03T08:23:32;18.70;75.00
32947;DHT22;54465;51.230;22.504;2022-09-03T08:26:37;19.00;73.50
32947;DHT22;54465;51.230;22.504;2022-09-03T08:29:41;19.30;71.80
32947;DHT22;54465;51.230;22.504;2022-09-03T08:32:46;19.50;70.70
32947;DHT22;54465;51.230;22.504;2022-09-03T08:35:52;19.60;69.90
32947;DHT22;54465;51.230;22.504;2022-09-03T08:38:56;19.90;68.00
32947;DHT22;54465;51.230;22.504;2022-09-03T08:42:20;20.20;67.40
32947;DHT22;54465;51.230;22.504;2022-09-03T08:45:27;20.50;64.80
32947;DHT22;54465;51.230;22.504;2022-09-03T08:48:31;20.60;63.30
32947;DHT22;54465;51.230;22.504;2022-09-03T08:51:36;20.80;63.50
32947;DHT22;54465;51.230;22.504;2022-09-03T08:54:41;21.20;63.20
32947;DHT22;54465;51.230;22.504;2022-09-03T08:57:48;21.50;60.10
32947;DHT22;54465;51.230;22.504;2022-09-03T09:00:54;21.60;58.50
32947;DHT22;54465;51.230;22.504;2022-09-03T09:04:10;21.70;57.90
32947;DHT22;54465;51.230;22.504;2022-09-03T09:07:21;21.70;58.00
32947;DHT22;54465;51.230;22.504;2022-09-03T09:14:23;22.00;56.10
32947;DHT22;54465;51.230;22.504;2022-09-03T09:17:48;22.00;54.60
32947;DHT22;54465;51.230;22.504;2022-09-03T09:20:56;22.10;54.50
32947;DHT22;54465;51.230;22.504;2022-09-03T09:24:05;22.30;54.70
32947;DHT22;54465;51.230;22.504;2022-09-03T09:27:14;22.50;53.90
32947;DHT22;54465;51.230;22.504;2022-09-03T09:30:19;22.80;52.80
32947;DHT22;54465;51.230;22.504;2022-09-03T09:33:22;23.10;51.20
32947;DHT22;54465;51.230;22.504;2022-09-03T09:36:25;23.30;51.40
32947;DHT22;54465;51.230;22.504;2022-09-03T09:39:28;23.50;50.80
32947;DHT22;54465;51.230;22.504;2022-09-03T09:42:32;23.60;49.90
32947;DHT22;54465;51.230;22.504;2022-09-03T09:45:38;23.40;48.60
32947;DHT22;54465;51.230;22.504;2022-09-03T09:48:48;23.50;48.60
32947;DHT22;54465;51.230;22.504;2022-09-03T09:52:00;23.50;48.60
32947;DHT22;54465;51.230;22.504;2022-09-03T09:55:06;23.80;48.70
32947;DHT22;54465;51.230;22.504;2022-09-03T09:58:10;24.00;47.90
32947;DHT22;54465;51.230;22.504;2022-09-03T10:01:19;24.10;46.90
32947;DHT22;54465;51.230;22.504;2022-09-03T10:04:27;24.10;47.70
32947;DHT22;54465;51.230;22.504;2022-09-03T10:07:31;24.10;47.30
32947;DHT22;54465;51.230;22.504;2022-09-03T10:10:43;24.10;47.20
32947;DHT22;54465;51.230;22.504;2022-09-03T10:13:51;24.30;47.90
32947;DHT22;54465;51.230;22.504;2022-09-03T10:17:00;24.30;45.80
32947;DHT22;54465;51.230;22.504;2022-09-03T10:20:11;24.30;45.40
32947;DHT22;54465;51.230;22.504;2022-09-03T10:23:50;24.60;46.00
32947;DHT22;54465;51.230;22.504;2022-09-03T10:26:56;24.70;45.00
32947;DHT22;54465;51.230;22.504;2022-09-03T10:29:59;25.00;45.50
32947;DHT22;54465;51.230;22.504;2022-09-03T10:33:10;25.30;45.20
32947;DHT22;54465;51.230;22.504;2022-09-03T10:36:19;25.40;43.50
32947;DHT22;54465;51.230;22.504;2022-09-03T10:39:31;25.50;44.20
32947;DHT22;54465;51.230;22.504;2022-09-03T10:42:43;25.30;41.70
32947;DHT22;54465;51.230;22.504;2022-09-03T10:45:53;25.20;44.70
32947;DHT22;54465;51.230;22.504;2022-09-03T10:49:19;25.10;44.50
32947;DHT22;54465;51.230;22.504;2022-09-03T10:52:27;25.20;44.80
32947;DHT22;54465;51.230;22.504;2022-09-03T10:55:39;25.40;44.70
32947;DHT22;54465;51.230;22.504;2022-09-03T10:59:02;25.60;43.80
32947;DHT22;54465;51.230;22.504;2022-09-03T11:02:24;25.50;42.40
32947;DHT22;54465;51.230;22.504;2022-09-03T11:05:33;25.70;43.40
32947;DHT22;54465;51.230;22.504;2022-09-03T11:08:43;25.80;42.40
32947;DHT22;54465;51.230;22.504;2022-09-03T11:11:52;26.00;42.50
32947;DHT22;54465;51.230;22.504;2022-09-03T11:15:00;26.30;41.50
32947;DHT22;54465;51.230;22.504;2022-09-03T11:18:14;26.40;41.10
32947;DHT22;54465;51.230;22.504;2022-09-03T11:21:26;26.40;41.00
32947;DHT22;54465;51.230;22.504;2022-09-03T11:24:31;26.60;41.90
32947;DHT22;54465;51.230;22.504;2022-09-03T11:27:53;26.70;41.60
32947;DHT22;54465;51.230;22.504;2022-09-03T11:31:16;27.10;40.30
32947;DHT22;54465;51.230;22.504;2022-09-03T11:34:28;27.10;38.90
32947;DHT22;54465;51.230;22.504;2022-09-03T11:37:53;26.70;38.80
32947;DHT22;54465;51.230;22.504;2022-09-03T11:41:12;26.50;40.20
32947;DHT22;54465;51.230;22.504;2022-09-03T11:44:19;26.50;39.90
32947;DHT22;54465;51.230;22.504;2022-09-03T11:47:23;26.40;40.10
32947;DHT22;54465;51.230;22.504;2022-09-03T11:50:28;26.50;40.80
32947;DHT22;54465;51.230;22.504;2022-09-03T11:53:35;26.60;40.70
32947;DHT22;54465;51.230;22.504;2022-09-03T11:56:40;26.80;41.60
32947;DHT22;54465;51.230;22.504;2022-09-03T11:59:43;27.00;40.20
32947;DHT22;54465;51.230;22.504;2022-09-03T12:02:47;26.90;39.70
32947;DHT22;54465;51.230;22.504;2022-09-03T12:13:07;27.60;39.40
32947;DHT22;54465;51.230;22.504;2022-09-03T12:16:50;28.10;38.50
32947;DHT22;54465;51.230;22.504;2022-09-03T12:19:56;28.60;36.80
32947;DHT22;54465;51.230;22.504;2022-09-03T12:22:59;28.90;38.50
32947;DHT22;54465;51.230;22.504;2022-09-03T12:26:06;28.90;37.20
32947;DHT22;54465;51.230;22.504;2022-09-03T12:29:48;29.60;37.50
32947;DHT22;54465;51.230;22.504;2022-09-03T12:33:02;30.00;37.00
32947;DHT22;54465;51.230;22.504;2022-09-03T12:36:08;30.50;35.80
32947;DHT22;54465;51.230;22.504;2022-09-03T12:39:13;30.90;35.30
32947;DHT22;54465;51.230;22.504;2022-09-03T12:42:24;31.20;35.30
32947;DHT22;54465;51.230;22.504;2022-09-03T12:45:41;31.50;35.50
32947;DHT22;54465;51.230;22.504;2022-09-03T12:48:55;31.30;35.20
32947;DHT22;54465;51.230;22.504;2022-09-03T12:52:07;31.30;34.90
32947;DHT22;54465;51.230;22.504;2022-09-03T12:55:20;30.90;33.60
32947;DHT22;54465;51.230;22.504;2022-09-03T12:58:30;30.10;34.20
32947;DHT22;54465;51.230;22.504;2022-09-03T13:01:42;29.80;35.70
32947;DHT22;54465;51.230;22.504;2022-09-03T13:04:46;29.50;36.60
32947;DHT22;54465;51.230;22.504;2022-09-03T13:07:53;28.60;36.70
32947;DHT22;54465;51.230;22.504;2022-09-03T13:10:59;27.70;37.40
32947;DHT22;54465;51.230;22.504;2022-09-03T13:14:06;26.80;38.70
32947;DHT22;54465;51.230;22.504;2022-09-03T13:17:28;25.90;39.20
32947;DHT22;54465;51.230;22.504;2022-09-03T13:20:47;25.80;40.80
32947;DHT22;54465;51.230;22.504;2022-09-03T13:24:03;26.30;41.50
32947;DHT22;54465;51.230;22.504;2022-09-03T13:27:24;27.00;40.50
32947;DHT22;54465;51.230;22.504;2022-09-03T13:30:39;27.80;39.70
32947;DHT22;54465;51.230;22.504;2022-09-03T13:33:48;28.70;38.80
32947;DHT22;54465;51.230;22.504;2022-09-03T13:36:56;29.40;38.20
32947;DHT22;54465;51.230;22.504;2022-09-03T13:40:12;29.60;36.40
32947;DHT22;54465;51.230;22.504;2022-09-03T13:43:25;28.60;37.40
32947;DHT22;54465;51.230;22.504;2022-09-03T13:46:31;27.50;38.60
32947;DHT22;54465;51.230;22.504;2022-09-03T13:49:39;26.50;40.00
32947;DHT22;54465;51.230;22.504;2022-09-03T13:53:03;25.70;41.60
32947;DHT22;54465;51.230;22.504;2022-09-03T13:56:13;25.00;42.90
32947;DHT22;54465;51.230;22.504;2022-09-03T13:59:23;24.40;43.20
32947;DHT22;54465;51.230;22.504;2022-09-03T14:02:35;23.80;45.20
32947;DHT22;54465;51.230;22.504;2022-09-03T14:05:49;23.40;46.30
32947;DHT22;54465;51.230;22.504;2022-09-03T14:09:05;23.10;47.00
32947;DHT22;54465;51.230;22.504;2022-09-03T14:12:19;23.50;48.60
32947;DHT22;54465;51.230;22.504;2022-09-03T14:15:31;24.00;49.40
32947;DHT22;54465;51.230;22.504;2022-09-03T14:18:44;24.50;49.70
32947;DHT22;54465;51.230;22.504;2022-09-03T14:21:57;24.80;49.00
32947;DHT22;54465;51.230;22.504;2022-09-03T14:25:12;24.60;48.80
32947;DHT22;54465;51.230;22.504;2022-09-03T14:28:29;24.10;49.30
32947;DHT22;54465;51.230;22.504;2022-09-03T14:31:56;23.40;50.40
32947;DHT22;54465;51.230;22.504;2022-09-03T14:35:27;22.80;51.80
32947;DHT22;54465;51.230;22.504;2022-09-03T14:38:54;22.20;53.20
32947;DHT22;54465;51.230;22.504;2022-09-03T14:42:21;21.70;54.60
32947;DHT22;54465;51.230;22.504;2022-09-03T14:49:25;21.10;56.90
32947;DHT22;54465;51.230;22.504;2022-09-03T14:53:01;21.40;56.70
32947;DHT22;54465;51.230;22.504;2022-09-03T14:56:27;21.50;56.50
32947;DHT22;54465;51.230;22.504;2022-09-03T15:00:00;21.70;56.70
32947;DHT22;54465;51.230;22.504;2022-09-03T15:03:23;22.10;56.10
32947;DHT22;54465;51.230;22.504;2022-09-03T15:06:50;22.60;54.80
32947;DHT22;54465;51.230;22.504;2022-09-03T15:10:05;22.90;53.90
32947;DHT22;54465;51.230;22.504;2022-09-03T15:13:17;22.90;53.40
32947;DHT22;54465;51.230;22.504;2022-09-03T15:16:30;23.00;53.70
32947;DHT22;54465;51.230;22.504;2022-09-03T15:19:52;23.10;53.70
32947;DHT22;54465;51.230;22.504;2022-09-03T15:23:28;23.20;53.80
32947;DHT22;54465;51.230;22.504;2022-09-03T15:26:50;23.30;53.90
32947;DHT22;54465;51.230;22.504;2022-09-03T15:30:07;23.20;54.20
32947;DHT22;54465;51.230;22.504;2022-09-03T15:33:21;23.10;54.30
32947;DHT22;54465;51.230;22.504;2022-09-03T15:36:26;23.20;54.30
32947;DHT22;54465;51.230;22.504;2022-09-03T15:39:37;23.30;54.50
32947;DHT22;54465;51.230;22.504;2022-09-03T15:42:45;23.20;54.70
32947;DHT22;54465;51.230;22.504;2022-09-03T15:45:53;22.90;55.40
32947;DHT22;54465;51.230;22.504;2022-09-03T15:52:51;21.90;56.90
32947;DHT22;54465;51.230;22.504;2022-09-03T15:56:10;21.50;57.90
32947;DHT22;54465;51.230;22.504;2022-09-03T15:59:18;21.20;58.60
32947;DHT22;54465;51.230;22.504;2022-09-03T16:02:29;20.90;59.70
32947;DHT22;54465;51.230;22.504;2022-09-03T16:05:39;20.60;60.40
32947;DHT22;54465;51.230;22.504;2022-09-03T16:08:48;20.40;61.40
32947;DHT22;54465;51.230;22.504;2022-09-03T16:11:59;20.10;62.20
32947;DHT22;54465;51.230;22.504;2022-09-03T16:15:08;20.00;62.80
32947;DHT22;54465;51.230;22.504;2022-09-03T16:18:22;19.80;63.30
32947;DHT22;54465;51.230;22.504;2022-09-03T16:21:29;19.60;64.10
32947;DHT22;54465;51.230;22.504;2022-09-03T16:24:41;19.50;64.40
32947;DHT22;54465;51.230;22.504;2022-09-03T16:27:52;19.40;64.90
32947;DHT22;54465;51.230;22.504;2022-09-03T16:31:08;19.20;65.40
32947;DHT22;54465;51.230;22.504;2022-09-03T16:34:21;19.10;65.70
32947;DHT22;54465;51.230;22.504;2022-09-03T16:37:30;19.10;66.30
32947;DHT22;54465;51.230;22.504;2022-09-03T16:40:40;19.00;66.50
32947;DHT22;54465;51.230;22.504;2022-09-03T16:43:58;18.90;66.80
32947;DHT22;54465;51.230;22.504;2022-09-03T16:47:15;18.80;67.20
32947;DHT22;54465;51.230;22.504;2022-09-03T16:50:31;18.80;67.60
32947;DHT22;54465;51.230;22.504;2022-09-03T16:53:59;18.70;68.20
32947;DHT22;54465;51.230;22.504;2022-09-03T16:57:27;18.70;68.40
32947;DHT22;54465;51.230;22.504;2022-09-03T17:00:51;18.60;68.70
32947;DHT22;54465;51.230;22.504;2022-09-03T17:07:56;18.50;69.30
32947;DHT22;54465;51.230;22.504;2022-09-03T17:11:10;18.40;69.60
32947;DHT22;54465;51.230;22.504;2022-09-03T17:14:50;18.30;70.00
32947;DHT22;54465;51.230;22.504;2022-09-03T17:21:47;18.20;71.10
32947;DHT22;54465;51.230;22.504;2022-09-03T17:24:54;18.10;71.40
32947;DHT22;54465;51.230;22.504;2022-09-03T17:28:14;18.00;71.50
32947;DHT22;54465;51.230;22.504;2022-09-03T17:31:26;17.90;72.10
32947;DHT22;54465;51.230;22.504;2022-09-03T17:34:41;17.80;72.50
32947;DHT22;54465;51.230;22.504;2022-09-03T17:37:55;17.70;73.10
32947;DHT22;54465;51.230;22.504;2022-09-03T17:41:11;17.50;73.50
32947;DHT22;54465;51.230;22.504;2022-09-03T17:44:27;17.50;74.10
32947;DHT22;54465;51.230;22.504;2022-09-03T17:51:32;17.30;75.30
32947;DHT22;54465;51.230;22.504;2022-09-03T17:54:40;17.20;75.50
32947;DHT22;54465;51.230;22.504;2022-09-03T17:57:47;17.10;76.10
32947;DHT22;54465;51.230;22.504;2022-09-03T18:00:56;17.00;76.50
32947;DHT22;54465;51.230;22.504;2022-09-03T18:04:09;16.90;76.80
32947;DHT22;54465;51.230;22.504;2022-09-03T18:07:22;16.90;77.30
32947;DHT22;54465;51.230;22.504;2022-09-03T18:10:32;16.80;77.40
32947;DHT22;54465;51.230;22.504;2022-09-03T18:13:52;16.70;78.00
32947;DHT22;54465;51.230;22.504;2022-09-03T18:17:02;16.70;78.60
32947;DHT22;54465;51.230;22.504;2022-09-03T18:20:12;16.60;78.80
32947;DHT22;54465;51.230;22.504;2022-09-03T18:23:40;16.60;79.50
32947;DHT22;54465;51.230;22.504;2022-09-03T18:27:09;16.50;79.90
32947;DHT22;54465;51.230;22.504;2022-09-03T18:30:32;16.50;80.50
32947;DHT22;54465;51.230;22.504;2022-09-03T18:33:52;16.50;80.80
32947;DHT22;54465;51.230;22.504;2022-09-03T18:37:15;16.50;81.10
32947;DHT22;54465;51.230;22.504;2022-09-03T18:40:38;16.40;81.70
32947;DHT22;54465;51.230;22.504;2022-09-03T18:44:07;16.40;82.10
32947;DHT22;54465;51.230;22.504;2022-09-03T18:47:38;16.30;82.60
32947;DHT22;54465;51.230;22.504;2022-09-03T18:51:06;16.20;83.20
32947;DHT22;54465;51.230;22.504;2022-09-03T18:54:33;16.20;83.90
32947;DHT22;54465;51.230;22.504;2022-09-03T18:58:06;16.10;84.30
32947;DHT22;54465;51.230;22.504;2022-09-03T19:01:31;16.10;84.90
32947;DHT22;54465;51.230;22.504;2022-09-03T19:05:05;16.10;85.50
32947;DHT22;54465;51.230;22.504;2022-09-03T19:08:36;16.00;86.30
32947;DHT22;54465;51.230;22.504;2022-09-03T19:12:08;16.00;87.00
32947;DHT22;54465;51.230;22.504;2022-09-03T19:15:37;15.90;88.10
32947;DHT22;54465;51.230;22.504;2022-09-03T19:19:17;15.80;88.80
32947;DHT22;54465;51.230;22.504;2022-09-03T19:22:39;15.80;89.80
32947;DHT22;54465;51.230;22.504;2022-09-03T19:26:04;15.70;89.80
32947;DHT22;54465;51.230;22.504;2022-09-03T19:29:40;15.60;90.50
32947;DHT22;54465;51.230;22.504;2022-09-03T19:33:10;15.60;91.00
32947;DHT22;54465;51.230;22.504;2022-09-03T19:36:39;15.50;91.40
32947;DHT22;54465;51.230;22.504;2022-09-03T19:40:24;15.50;91.80
32947;DHT22;54465;51.230;22.504;2022-09-03T19:43:59;15.50;92.40
32947;DHT22;54465;51.230;22.504;2022-09-03T19:47:31;15.40;92.60
32947;DHT22;54465;51.230;22.504;2022-09-03T19:50:59;15.40;93.10
32947;DHT22;54465;51.230;22.504;2022-09-03T19:54:25;15.30;93.60
32947;DHT22;54465;51.230;22.504;2022-09-03T19:57:53;15.20;94.00
32947;DHT22;54465;51.230;22.504;2022-09-03T20:01:16;15.20;94.50
32947;DHT22;54465;51.230;22.504;2022-09-03T20:04:40;15.20;94.70
32947;DHT22;54465;51.230;22.504;2022-09-03T20:08:02;15.10;95.10
32947;DHT22;54465;51.230;22.504;2022-09-03T20:11:23;15.10;95.60
32947;DHT22;54465;51.230;22.504;2022-09-03T20:14:30;15.10;95.90
32947;DHT22;54465;51.230;22.504;2022-09-03T20:17:39;15.00;96.30
32947;DHT22;54465;51.230;22.504;2022-09-03T20:20:49;14.90;96.70